createdAt,value
2022-11-05T00:00:19.877Z,99771.16
2022-11-05T00:05:42.605Z,99774.69
2022-11-05T00:11:04.558Z,99776.31
2022-11-05T00:16:26.365Z,99771.59
2022-11-05T00:21:48.162Z,99783.03
2022-11-05T00:27:10.407Z,99784.94
2022-11-05T00:32:32.569Z,99783.66
2022-11-05T00:37:54.402Z,99767.19
2022-11-05T00:43:16.490Z,99770.31
2022-11-05T00:48:38.341Z,99752.56
2022-11-05T00:54:00.159Z,99759.94
2022-11-05T00:59:21.932Z,99752.31
2022-11-05T01:04:43.962Z,99762.03
2022-11-05T01:10:06.315Z,99743.22
2022-11-05T01:15:28.108Z,99749.38
2022-11-05T01:20:50.569Z,99762.47
2022-11-05T01:26:12.399Z,99750.75
2022-11-05T01:31:34.193Z,99762.63
2022-11-05T01:36:56.004Z,99765.53
2022-11-05T01:42:24.510Z,99765.72
2022-11-05T01:48:12.867Z,99768.34
2022-11-05T01:53:41.845Z,99771.94
2022-11-05T01:59:10.249Z,99786.91
2022-11-05T02:04:40.054Z,99798.34
2022-11-05T02:10:08.031Z,99778.56
2022-11-05T02:16:02.146Z,99794.44
2022-11-05T02:21:29.943Z,99788.19
2022-11-05T02:26:54.476Z,99785.28
2022-11-05T02:32:31.120Z,99781.34
2022-11-05T02:37:54.702Z,99797.50
2022-11-05T02:43:22.408Z,99797.66
2022-11-05T02:49:05.547Z,99799.47
2022-11-05T02:54:32.026Z,99794.97
2022-11-05T03:00:07.648Z,99817.50
2022-11-05T03:05:49.575Z,99817.69
2022-11-05T03:11:18.034Z,99804.84
2022-11-05T03:16:43.021Z,99827.84
2022-11-05T03:22:29.173Z,99826.66
2022-11-05T03:27:57.552Z,99828.25
2022-11-05T03:33:25.363Z,99814.03
2022-11-05T03:38:51.737Z,99835.19
2022-11-05T03:44:17.356Z,99815.78
2022-11-05T03:49:43.867Z,99822.56
2022-11-05T03:55:06.093Z,99842.81
2022-11-05T04:00:27.989Z,99836.91
2022-11-05T04:05:50.635Z,99844.22
2022-11-05T04:11:12.479Z,99867.84
2022-11-05T04:16:34.272Z,99872.44
2022-11-05T04:21:56.094Z,99901.91
2022-11-05T04:27:17.963Z,99883.09
2022-11-05T04:32:39.840Z,99871.66
2022-11-05T04:38:01.951Z,99898.91
2022-11-05T04:43:24.028Z,99875.09
2022-11-05T04:48:46.003Z,99893.63
2022-11-05T04:54:07.778Z,99903.91
2022-11-05T04:59:29.625Z,99917.13
2022-11-05T05:04:51.427Z,99929.88
2022-11-05T05:10:13.270Z,99927.78
2022-11-05T05:15:35.082Z,99931.69
2022-11-05T05:20:58.039Z,99934.31
2022-11-05T05:26:19.867Z,99939.53
2022-11-05T05:31:42.458Z,99942.41
2022-11-05T05:37:04.274Z,99960.91
2022-11-05T05:42:26.106Z,99965.41
2022-11-05T05:47:47.945Z,99968.09
2022-11-05T05:53:10.089Z,99963.34
2022-11-05T05:58:38.702Z,99965.28
2022-11-05T06:04:00.571Z,99977.66
2022-11-05T06:09:22.388Z,99970.09
2022-11-05T06:14:44.231Z,99969.56
2022-11-05T06:20:07.736Z,99982.22
2022-11-05T06:25:29.790Z,99992.38
2022-11-05T06:30:51.615Z,100003.28
2022-11-05T06:36:15.532Z,100000.72
2022-11-05T06:41:56.939Z,100009.09
2022-11-05T06:47:19.684Z,100003.97
2022-11-05T06:52:41.548Z,100011.53
2022-11-05T06:58:03.891Z,99987.88
2022-11-05T07:03:25.737Z,100001.50
2022-11-05T07:08:47.535Z,100012.75
2022-11-05T07:14:09.400Z,100028.28
2022-11-05T07:19:31.287Z,100002.44
2022-11-05T07:24:53.174Z,100026.91
2022-11-05T07:30:15.150Z,100021.72
2022-11-05T07:35:37.006Z,100014.63
2022-11-05T07:41:01.828Z,100032.88
2022-11-05T07:46:23.663Z,100043.13
2022-11-05T07:51:45.473Z,100047.59
2022-11-05T07:57:07.292Z,100054.34
2022-11-05T08:02:29.231Z,100061.50
2022-11-05T08:07:52.954Z,100068.69
2022-11-05T08:13:15.765Z,100081.81
2022-11-05T08:18:38.068Z,100087.00
2022-11-05T08:23:59.909Z,100082.72
2022-11-05T08:29:21.867Z,100082.94
2022-11-05T08:34:43.805Z,100088.28
2022-11-05T08:40:06.252Z,100082.22
2022-11-05T08:45:28.768Z,100093.16
2022-11-05T08:50:50.611Z,100095.63
2022-11-05T08:56:12.486Z,100091.41
2022-11-05T09:01:34.421Z,100093.75
2022-11-05T09:06:56.329Z,100108.59
2022-11-05T09:12:18.139Z,100130.75
2022-11-05T09:17:40.088Z,100112.47
2022-11-05T09:23:02.344Z,100120.47
2022-11-05T09:28:24.168Z,100124.47
2022-11-05T09:33:46.050Z,100129.53
2022-11-05T09:39:08.047Z,100119.31
2022-11-05T09:44:42.677Z,100127.53
2022-11-05T09:50:12.940Z,100147.66
2022-11-05T09:55:41.170Z,100158.44
2022-11-05T10:01:06.789Z,100153.97
2022-11-05T10:06:29.219Z,100157.13
2022-11-05T10:12:21.176Z,100178.88
2022-11-05T10:17:48.678Z,100188.59
2022-11-05T10:23:14.147Z,100197.97
2022-11-05T10:28:36.707Z,100200.00
2022-11-05T10:34:02.351Z,100198.31
2022-11-05T10:39:25.518Z,100200.59
2022-11-05T10:44:52.826Z,100203.25
2022-11-05T10:50:21.628Z,100213.47
2022-11-05T10:55:48.708Z,100217.31
2022-11-05T11:01:12.270Z,100200.84
2022-11-05T11:06:36.325Z,100200.84
2022-11-05T11:12:02.473Z,100217.16
2022-11-05T11:17:31.686Z,100222.59
2022-11-05T11:23:11.411Z,100218.00
2022-11-05T11:28:40.660Z,100223.81
2022-11-05T11:34:06.107Z,100209.16
2022-11-05T11:39:30.554Z,100222.97
2022-11-05T11:44:53.051Z,100213.69
2022-11-05T11:50:37.325Z,100237.69
2022-11-05T11:56:02.200Z,100235.53
2022-11-05T12:01:42.271Z,100228.47
2022-11-05T12:07:09.931Z,100256.59
2022-11-05T12:12:37.663Z,100260.09
2022-11-05T12:18:05.485Z,100255.09
2022-11-05T12:23:51.117Z,100278.88
2022-11-05T12:29:40.308Z,100272.13
2022-11-05T12:35:30.007Z,100276.94
2022-11-05T12:40:57.788Z,100278.75
2022-11-05T12:46:29.090Z,100276.66
2022-11-05T12:52:00.009Z,100279.94
2022-11-05T12:57:23.047Z,100279.69
2022-11-05T13:03:03.602Z,100277.50
2022-11-05T13:08:36.468Z,100270.50
2022-11-05T13:14:13.272Z,100291.25
2022-11-05T13:19:45.005Z,100288.50
2022-11-05T13:25:17.037Z,100284.53
2022-11-05T13:30:44.076Z,100279.59
2022-11-05T13:36:12.194Z,100287.75
2022-11-05T13:41:53.357Z,100308.72
2022-11-05T13:47:28.003Z,100320.66
2022-11-05T13:53:02.706Z,100325.59
2022-11-05T13:58:30.335Z,100335.00
2022-11-05T14:03:55.561Z,100331.72
2022-11-05T14:09:23.931Z,100338.50
2022-11-05T14:14:55.864Z,100360.09
2022-11-05T14:20:32.626Z,100369.81
2022-11-05T14:26:21.901Z,100380.31
2022-11-05T14:32:07.813Z,100378.72
2022-11-05T14:37:40.109Z,100381.16
2022-11-05T14:43:07.549Z,100379.44
2022-11-05T14:48:38.123Z,100391.19
2022-11-05T14:54:05.169Z,100395.81
2022-11-05T14:59:26.932Z,100396.13
2022-11-05T15:04:48.933Z,100400.06
2022-11-05T15:10:17.179Z,100395.97
2022-11-05T15:15:43.648Z,100403.84
2022-11-05T15:21:10.551Z,100399.59
2022-11-05T15:26:47.518Z,100409.63
2022-11-05T15:32:30.768Z,100418.47
2022-11-05T15:38:02.260Z,100409.47
2022-11-05T15:43:24.624Z,100412.00
2022-11-05T15:49:14.117Z,100423.84
2022-11-05T15:54:36.322Z,100435.16
2022-11-05T15:59:58.487Z,100426.34
2022-11-05T16:05:21.160Z,100440.00
2022-11-05T16:10:48.460Z,100446.09
2022-11-05T16:16:16.106Z,100453.97
2022-11-05T16:21:53.866Z,100457.47
2022-11-05T16:27:21.241Z,100445.66
2022-11-05T16:32:43.134Z,100470.22
2022-11-05T16:38:05.105Z,100475.28
2022-11-05T16:43:27.338Z,100467.69
2022-11-05T16:48:49.521Z,100484.69
2022-11-05T16:54:11.453Z,100496.59
2022-11-05T16:59:34.292Z,100499.69
2022-11-05T17:04:56.178Z,100508.34
2022-11-05T17:10:19.397Z,100518.63
2022-11-05T17:15:42.920Z,100513.63
2022-11-05T17:21:05.266Z,100525.59
2022-11-05T17:26:27.136Z,100534.75
2022-11-05T17:31:49.013Z,100538.88
2022-11-05T17:37:10.856Z,100542.16
2022-11-05T17:42:33.134Z,100551.41
2022-11-05T17:47:55.135Z,100563.44
2022-11-05T17:53:19.063Z,100555.44
2022-11-05T17:58:41.110Z,100546.91
2022-11-05T18:04:08.622Z,100564.78
2022-11-05T18:09:31.331Z,100569.03
2022-11-05T18:14:53.172Z,100558.84
2022-11-05T18:20:19.233Z,100567.78
2022-11-05T18:25:42.298Z,100569.38
2022-11-05T18:31:08.214Z,100570.88
2022-11-05T18:36:32.218Z,100569.31
2022-11-05T18:41:54.044Z,100574.22
2022-11-05T18:47:16.083Z,100566.22
2022-11-05T18:52:37.922Z,100578.28
2022-11-05T18:57:59.772Z,100584.41
2022-11-05T19:03:21.596Z,100587.72
2022-11-05T19:08:44.458Z,100591.22
2022-11-05T19:14:07.224Z,100590.34
2022-11-05T19:19:29.390Z,100592.72
2022-11-05T19:24:51.439Z,100599.78
2022-11-05T19:30:13.435Z,100604.22
2022-11-05T19:35:41.323Z,100610.22
2022-11-05T19:41:08.901Z,100618.19
2022-11-05T19:46:31.502Z,100626.13
2022-11-05T19:51:53.517Z,100630.44
2022-11-05T19:57:15.319Z,100617.72
2022-11-05T20:02:37.406Z,100636.41
2022-11-05T20:07:59.333Z,100650.94
2022-11-05T20:13:21.413Z,100653.56
2022-11-05T20:18:43.245Z,100659.53
2022-11-05T20:24:05.650Z,100649.50
2022-11-05T20:29:33.892Z,100662.25
2022-11-05T20:34:57.130Z,100668.22
2022-11-05T20:40:19.077Z,100661.44
2022-11-05T20:45:40.906Z,100686.19
2022-11-05T20:51:08.301Z,100687.13
2022-11-05T20:56:32.266Z,100692.31
2022-11-05T21:01:54.254Z,100696.63
2022-11-05T21:07:16.191Z,100696.50
2022-11-05T21:12:38.067Z,100699.03
2022-11-05T21:18:00.459Z,100698.13
2022-11-05T21:23:22.967Z,100704.81
2022-11-05T21:28:44.825Z,100697.41
2022-11-05T21:34:06.653Z,100693.84
2022-11-05T21:39:28.484Z,100704.06
2022-11-05T21:44:50.311Z,100703.97
2022-11-05T21:50:12.186Z,100716.84
2022-11-05T21:55:34.133Z,100700.63
2022-11-05T22:00:55.987Z,100705.66
2022-11-05T22:06:17.791Z,100706.53
2022-11-05T22:11:39.634Z,100711.81
2022-11-05T22:17:01.684Z,100707.50
2022-11-05T22:22:23.529Z,100707.53
2022-11-05T22:27:45.717Z,100703.41
2022-11-05T22:33:07.675Z,100722.97
2022-11-05T22:38:30.711Z,100729.00
2022-11-05T22:43:52.594Z,100733.22
2022-11-05T22:49:14.911Z,100729.84
2022-11-05T22:54:39.423Z,100737.50
2022-11-05T23:00:01.641Z,100732.41
2022-11-05T23:05:23.638Z,100711.91
2022-11-05T23:10:45.463Z,100730.88
2022-11-05T23:16:07.597Z,100735.22
2022-11-05T23:21:29.406Z,100747.16
2022-11-05T23:26:51.276Z,100742.06
2022-11-05T23:32:13.151Z,100738.81
2022-11-05T23:37:34.981Z,100734.50
2022-11-05T23:42:57.557Z,100734.59
2022-11-05T23:48:37.178Z,100734.78
2022-11-05T23:53:59.017Z,100751.09
2022-11-05T23:59:20.901Z,100740.91
